Time;durP1;ratioP1;P1;durP2;ratioP2;P2;SDS_P1;SDS_P2;PMS_P1;PMS_P2;Temp;Humidity;BMP_temperature;BMP_pressure;BME280_temperature;BME280_humidity;BME280_pressure;Samples;Min_cycle;Max_cycle;Signal;HPM_P1;HPM_P2
2022/02/22 00:01:09;;;;;;;33.50;22.50;;;;;;;8.59;51.29;99557.63;117188;1185;21986;-64
2022/02/22 00:03:38;;;;;;;32.60;23.60;;;;;;;8.60;51.08;99552.02;117220;1182;21862;-64
2022/02/22 00:06:06;;;;;;;36.90;23.80;;;;;;;8.62;51.05;99548.29;117174;1187;22658;-64
2022/02/22 00:08:34;;;;;;;34.40;23.70;;;;;;;8.63;51.20;99545.30;117156;1184;24185;-52
2022/02/22 00:11:03;;;;;;;38.80;24.10;;;;;;;8.63;51.04;99540.06;117312;1186;21859;-51
2022/02/22 00:13:31;;;;;;;32.70;22.10;;;;;;;8.63;50.97;99534.81;117174;1186;23458;-51
2022/02/22 00:16:00;;;;;;;36.20;25.20;;;;;;;8.64;51.26;99537.42;117142;1187;23192;-64
2022/02/22 00:18:28;;;;;;;39.90;24.10;;;;;;;8.63;51.16;99528.70;117156;1187;23548;-51
2022/02/22 00:20:57;;;;;;;35.80;24.60;;;;;;;8.62;51.15;99534.11;117125;1184;23452;-64
2022/02/22 00:23:25;;;;;;;35.20;23.80;;;;;;;8.62;51.15;99529.41;117175;1184;22697;-64
2022/02/22 00:25:53;;;;;;;33.60;23.70;;;;;;;8.63;51.50;99525.38;117129;1184;23468;-64
2022/02/22 00:28:21;;;;;;;33.50;24.50;;;;;;;8.63;51.16;99519.78;117174;1184;23452;-51
2022/02/22 00:30:49;;;;;;;37.70;24.30;;;;;;;8.62;51.49;99518.39;117151;1184;22496;-51
2022/02/22 00:33:17;;;;;;;37.40;25.00;;;;;;;8.62;51.94;99513.66;117041;1187;21864;-50
2022/02/22 00:35:49;;;;;;;36.30;23.70;;;;;;;8.60;51.91;99506.71;117115;1186;23557;-63
2022/02/22 00:38:17;;;;;;;34.40;23.30;;;;;;;8.60;51.66;99506.90;117170;1186;22648;-64
2022/02/22 00:40:45;;;;;;;34.40;24.90;;;;;;;8.60;51.77;99506.02;117169;1184;23554;-51
2022/02/22 00:43:13;;;;;;;40.10;24.40;;;;;;;8.60;51.66;99502.52;117118;1185;21848;-51
2022/02/22 00:45:42;;;;;;;34.40;22.80;;;;;;;8.61;51.80;99498.98;117182;1186;23528;-52
2022/02/22 00:48:11;;;;;;;40.00;23.50;;;;;;;8.63;51.86;99497.73;117197;1186;23496;-53
2022/02/22 00:50:39;;;;;;;35.20;24.40;;;;;;;8.63;51.79;99494.75;117132;1185;23464;-52
2022/02/22 00:53:07;;;;;;;35.50;23.20;;;;;;;8.65;51.88;99495.79;117214;1184;21854;-52
2022/02/22 00:55:36;;;;;;;32.50;21.90;;;;;;;8.65;51.67;99499.63;117106;1188;22062;-64
2022/02/22 00:58:06;;;;;;;37.10;23.50;;;;;;;8.65;51.67;99501.38;117210;1185;23557;-52
2022/02/22 01:00:34;;;;;;;35.80;24.60;;;;;;;8.66;51.82;99502.95;117144;1186;21867;-63
2022/02/22 01:03:03;;;;;;;33.40;22.80;;;;;;;8.66;51.95;99503.81;117076;1185;22678;-53
2022/02/22 01:05:31;;;;;;;35.30;22.90;;;;;;;8.65;52.06;99504.88;117182;1186;23501;-52
2022/02/22 01:08:01;;;;;;;35.10;24.30;;;;;;;8.65;51.88;99503.31;117163;1188;21898;-51
2022/02/22 01:10:31;;;;;;;36.70;23.10;;;;;;;8.65;51.95;99501.39;117104;1188;23468;-64
2022/02/22 01:13:01;;;;;;;36.70;22.20;;;;;;;8.65;51.79;99502.95;117149;1186;23081;-63
2022/02/22 01:15:29;;;;;;;34.90;23.10;;;;;;;8.67;51.83;99499.42;117180;1185;23823;-51
2022/02/22 01:18:00;;;;;;;38.80;23.90;;;;;;;8.67;52.03;99495.58;117182;1188;23604;-52
2022/02/22 01:20:29;;;;;;;39.90;23.80;;;;;;;8.66;51.97;99493.84;117149;1187;23556;-52
2022/02/22 01:22:57;;;;;;;38.70;22.90;;;;;;;8.66;52.30;99483.35;117128;1185;21859;-63
2022/02/22 01:25:27;;;;;;;40.10;23.50;;;;;;;8.65;52.38;99482.84;117131;1186;23448;-51
2022/02/22 01:27:55;;;;;;;34.60;23.00;;;;;;;8.64;52.36;99477.61;117130;1185;22774;-63
2022/02/22 01:30:23;;;;;;;44.40;25.30;;;;;;;8.63;52.52;99475.17;117149;1179;21863;-63
2022/02/22 01:32:51;;;;;;;36.60;23.40;;;;;;;8.63;52.85;99463.81;117170;1185;23455;-52
2022/02/22 01:35:19;;;;;;;40.90;24.50;;;;;;;8.62;52.84;99460.66;117158;1187;23481;-53
2022/02/22 01:37:47;;;;;;;41.10;24.90;;;;;;;8.62;52.72;99447.05;117039;1186;22681;-52
2022/02/22 01:40:16;;;;;;;41.10;25.40;;;;;;;8.61;53.05;99446.36;117193;1187;21858;-52
2022/02/22 01:42:45;;;;;;;41.70;25.20;;;;;;;8.61;53.12;99438.68;117097;1186;21858;-51
2022/02/22 01:45:13;;;;;;;39.40;25.40;;;;;;;8.60;53.21;99430.82;117133;1184;23579;-52
2022/02/22 01:47:41;;;;;;;34.70;24.30;;;;;;;8.60;53.09;99424.88;117098;1184;22794;-63
2022/02/22 01:50:09;;;;;;;39.50;25.80;;;;;;;8.61;53.03;99419.63;117057;1182;23455;-53
2022/02/22 01:52:39;;;;;;;39.70;24.80;;;;;;;8.60;53.37;99420.15;117126;1183;22941;-52
2022/02/22 01:55:15;;;;;;;45.50;25.70;;;;;;;8.59;53.34;99417.03;117101;1188;23471;-64
2022/02/22 01:57:45;;;;;;;40.70;25.10;;;;;;;8.58;53.06;99416.18;117154;1185;23458;-52
2022/02/22 02:00:14;;;;;;;42.40;26.50;;;;;;;8.58;53.21;99412.69;117007;1184;21999;-63
2022/02/22 02:02:42;;;;;;;37.20;25.00;;;;;;;8.57;53.17;99415.67;117126;1185;23452;-53
2022/02/22 02:05:13;;;;;;;40.30;24.30;;;;;;;8.58;53.23;99421.41;117041;1188;21833;-52
2022/02/22 02:07:41;;;;;;;41.30;25.50;;;;;;;8.60;53.07;99428.73;117158;1184;23579;-52
2022/02/22 02:10:09;;;;;;;41.60;26.70;;;;;;;8.61;53.16;99429.75;117163;1188;23453;-63
2022/02/22 02:12:38;;;;;;;40.00;26.40;;;;;;;8.60;53.30;99421.02;117121;1188;22648;-55
2022/02/22 02:15:07;;;;;;;35.30;23.20;;;;;;;8.60;53.01;99419.46;117198;1186;24156;-64
2022/02/22 02:17:35;;;;;;;40.00;26.00;;;;;;;8.62;53.12;99423.44;117160;1182;22976;-64
2022/02/22 02:20:07;;;;;;;38.10;24.70;;;;;;;8.62;53.12;99418.00;117138;1181;21853;-64
2022/02/22 02:22:37;;;;;;;36.10;24.50;;;;;;;8.62;52.93;99419.76;117115;1185;21857;-52
2022/02/22 02:25:06;;;;;;;33.90;23.90;;;;;;;8.63;53.05;99425.52;117044;1187;23556;-52
2022/02/22 02:27:34;;;;;;;42.00;25.70;;;;;;;8.62;53.10;99423.25;117122;1187;22061;-52
2022/02/22 02:30:06;;;;;;;35.10;23.40;;;;;;;8.62;52.94;99420.64;117116;1185;22822;-64
2022/02/22 02:32:34;;;;;;;38.70;25.40;;;;;;;8.62;52.88;99419.41;117184;1186;21864;-64
2022/02/22 02:35:06;;;;;;;41.90;24.80;;;;;;;8.61;53.13;99422.57;117146;1186;23477;-64
2022/02/22 02:37:37;;;;;;;43.10;26.10;;;;;;;8.61;53.15;99427.30;117207;1185;21848;-53
2022/02/22 02:40:25;;;;;;;42.80;26.50;;;;;;;8.61;53.07;99423.27;117096;1186;22616;-53
2022/02/22 02:42:54;;;;;;;37.90;25.30;;;;;;;8.61;53.10;99425.20;117054;1188;21866;-52
2022/02/22 02:45:23;;;;;;;44.30;27.20;;;;;;;8.61;53.34;99427.66;117147;1188;21866;-52
2022/02/22 02:47:51;;;;;;;40.30;25.20;;;;;;;8.62;53.15;99429.55;117168;1184;23456;-53
2022/02/22 02:50:19;;;;;;;47.10;26.50;;;;;;;8.62;53.24;99427.63;117046;1185;23478;-62
2022/02/22 02:52:47;;;;;;;48.60;27.20;;;;;;;8.61;53.11;99427.48;117183;1184;23464;-53
2022/02/22 02:55:16;;;;;;;40.80;25.60;;;;;;;8.61;53.03;99426.25;117114;1184;23568;-54
2022/02/22 02:57:44;;;;;;;41.10;26.50;;;;;;;8.61;53.00;99427.65;117135;1185;23460;-65
2022/02/22 03:00:13;;;;;;;39.80;25.70;;;;;;;8.61;53.11;99429.39;117113;1184;22711;-65
2022/02/22 03:02:41;;;;;;;41.90;26.20;;;;;;;8.62;53.05;99431.47;117196;1185;23209;-52
2022/02/22 03:05:10;;;;;;;45.10;26.80;;;;;;;8.62;53.12;99431.30;117111;1186;21833;-53
2022/02/22 03:07:39;;;;;;;43.50;26.60;;;;;;;8.62;53.28;99430.43;117121;1186;23474;-65
2022/02/22 03:10:08;;;;;;;45.10;28.90;;;;;;;8.62;53.27;99430.43;117160;1184;23483;-65
2022/02/22 03:12:36;;;;;;;45.70;26.90;;;;;;;8.62;53.31;99428.86;117162;1182;23579;-53
2022/02/22 03:15:05;;;;;;;44.40;27.70;;;;;;;8.61;53.40;99431.33;117171;1188;23470;-65
2022/02/22 03:17:35;;;;;;;42.10;26.00;;;;;;;8.59;53.18;99428.40;117142;1186;23449;-53
2022/02/22 03:20:04;;;;;;;42.60;27.00;;;;;;;8.58;53.22;99431.56;117196;1185;24175;-53
2022/02/22 03:22:34;;;;;;;49.30;28.40;;;;;;;8.56;53.33;99424.26;117119;1185;22928;-65
2022/02/22 03:25:03;;;;;;;42.70;26.10;;;;;;;8.55;53.15;99420.26;117127;1186;23475;-54
2022/02/22 03:27:31;;;;;;;54.00;27.70;;;;;;;8.55;53.20;99420.09;117154;1184;22970;-54
2022/02/22 03:29:59;;;;;;;50.60;30.60;;;;;;;8.52;53.25;99425.73;117169;1184;23455;-65
2022/02/22 03:32:28;;;;;;;46.50;28.60;;;;;;;8.49;53.51;99428.23;117183;1182;23180;-64
2022/02/22 03:34:58;;;;;;;45.40;28.20;;;;;;;8.49;53.42;99434.17;117132;1178;23580;-55
2022/02/22 03:37:26;;;;;;;54.40;30.00;;;;;;;8.47;53.48;99434.88;117140;1185;23462;-64
2022/02/22 03:39:54;;;;;;;55.50;31.70;;;;;;;8.46;53.52;99435.06;117111;1185;24150;-53
2022/02/22 03:42:22;;;;;;;55.10;28.50;;;;;;;8.45;53.69;99430.36;117093;1185;23453;-54
2022/02/22 03:44:51;;;;;;;49.40;30.00;;;;;;;8.46;53.66;99428.79;117166;1188;21902;-65
2022/02/22 03:47:19;;;;;;;50.30;29.80;;;;;;;8.46;53.52;99429.13;117228;1184;23482;-65
2022/02/22 03:49:48;;;;;;;56.00;30.60;;;;;;;8.47;53.51;99430.70;117208;1185;24153;-65
2022/02/22 03:52:16;;;;;;;49.20;29.30;;;;;;;8.48;53.59;99438.90;117166;1185;21863;-53
2022/02/22 03:54:44;;;;;;;64.60;31.80;;;;;;;8.48;53.45;99439.95;117159;1188;22002;-53
2022/02/22 03:57:12;;;;;;;46.10;27.50;;;;;;;8.50;53.51;99445.52;117141;1184;22646;-65
2022/02/22 03:59:43;;;;;;;53.90;31.20;;;;;;;8.51;53.62;99452.67;117138;1187;22926;-53
2022/02/22 04:02:11;;;;;;;54.20;30.80;;;;;;;8.50;53.55;99455.48;117039;1185;23547;-53
2022/02/22 04:04:39;;;;;;;52.70;30.20;;;;;;;8.52;53.71;99452.66;117175;1188;23474;-65
2022/02/22 04:07:08;;;;;;;48.80;29.60;;;;;;;8.56;53.48;99456.61;117160;1184;21908;-54
2022/02/22 04:09:36;;;;;;;53.00;29.30;;;;;;;8.58;53.46;99447.66;117037;1185;21848;-54
2022/02/22 04:12:05;;;;;;;50.40;29.20;;;;;;;8.59;53.53;99444.50;117173;1184;23449;-54
2022/02/22 04:14:33;;;;;;;54.70;31.50;;;;;;;8.57;53.76;99443.48;117168;1185;21863;-54
2022/02/22 04:17:02;;;;;;;53.10;29.30;;;;;;;8.57;53.68;99436.48;117202;1188;22932;-64
2022/02/22 04:19:31;;;;;;;50.80;29.40;;;;;;;8.58;53.71;99438.02;117125;1185;21865;-54
2022/02/22 04:22:01;;;;;;;53.20;29.80;;;;;;;8.61;53.77;99436.02;117161;1183;23455;-65
2022/02/22 04:24:29;;;;;;;47.70;29.20;;;;;;;8.63;53.67;99432.70;117151;1185;24173;-65
2022/02/22 04:26:57;;;;;;;50.50;31.40;;;;;;;8.64;53.70;99428.30;117218;1187;21849;-65
2022/02/22 04:29:26;;;;;;;52.10;29.60;;;;;;;8.65;53.89;99433.17;117166;1188;23445;-65
2022/02/22 04:31:54;;;;;;;46.50;30.50;;;;;;;8.63;53.68;99442.30;117035;1185;23474;-53
2022/02/22 04:34:23;;;;;;;54.70;30.20;;;;;;;8.61;53.85;99448.48;117244;1188;23475;-54
2022/02/22 04:36:52;;;;;;;54.50;30.70;;;;;;;8.62;53.74;99458.40;117123;1184;21857;-65
2022/02/22 04:39:20;;;;;;;50.60;31.20;;;;;;;8.66;53.86;99468.30;117121;1185;22011;-54
2022/02/22 04:41:50;;;;;;;52.40;30.70;;;;;;;8.68;53.68;99466.36;117125;1184;24175;-55
2022/02/22 04:44:18;;;;;;;45.30;27.50;;;;;;;8.67;53.77;99467.77;117184;1185;22658;-66
2022/02/22 04:46:47;;;;;;;62.30;31.20;;;;;;;8.68;53.60;99470.54;117131;1182;22931;-54
2022/02/22 04:49:15;;;;;;;55.30;29.30;;;;;;;8.66;53.79;99468.84;117099;1185;21902;-54
2022/02/22 04:51:44;;;;;;;50.30;29.40;;;;;;;8.64;53.57;99469.38;117137;1186;21858;-65
2022/02/22 04:54:12;;;;;;;51.10;28.70;;;;;;;8.62;53.77;99467.32;117137;1184;21864;-65
2022/02/22 04:56:41;;;;;;;50.40;28.80;;;;;;;8.60;53.73;99468.77;117161;1188;23455;-54
2022/02/22 04:59:17;;;;;;;58.90;30.90;;;;;;;8.60;53.78;99468.77;117073;1183;23536;-69
2022/02/22 05:01:46;;;;;;;58.60;31.80;;;;;;;8.61;53.74;99465.42;117101;1186;22761;-67
2022/02/22 05:04:15;;;;;;;52.90;30.90;;;;;;;8.60;53.83;99460.73;117147;1185;21910;-53
2022/02/22 05:06:44;;;;;;;54.20;32.20;;;;;;;8.60;53.86;99463.89;117089;1185;23485;-54
2022/02/22 05:09:12;;;;;;;54.90;31.70;;;;;;;8.60;53.80;99472.27;117126;1185;21857;-65
2022/02/22 05:11:41;;;;;;;52.70;29.80;;;;;;;8.62;53.87;99478.00;117078;1184;21860;-65
2022/02/22 05:14:09;;;;;;;52.80;29.20;;;;;;;8.63;53.88;99477.10;117125;1184;23630;-66
2022/02/22 05:16:39;;;;;;;50.30;28.20;;;;;;;8.65;53.65;99471.83;117120;1186;23474;-65
2022/02/22 05:19:07;;;;;;;50.60;28.70;;;;;;;8.69;53.83;99473.33;117117;1186;21860;-54
2022/02/22 05:21:36;;;;;;;52.20;28.20;;;;;;;8.72;53.73;99486.56;117172;1188;24246;-53
2022/02/22 05:24:06;;;;;;;48.80;28.70;;;;;;;8.75;53.79;99491.23;117157;1184;21882;-53
2022/02/22 05:26:35;;;;;;;53.60;28.50;;;;;;;8.77;53.70;99489.27;117150;1185;23474;-66
2022/02/22 05:29:06;;;;;;;48.90;28.80;;;;;;;8.78;53.72;99492.92;117141;1188;24158;-66
2022/02/22 05:31:35;;;;;;;50.30;29.40;;;;;;;8.80;53.72;99499.18;117029;1188;24238;-54
2022/02/22 05:34:03;;;;;;;52.10;30.00;;;;;;;8.81;53.85;99497.44;117171;1184;21854;-65
2022/02/22 05:36:32;;;;;;;51.00;30.50;;;;;;;8.80;53.80;99500.92;117150;1186;21848;-66
2022/02/22 05:39:00;;;;;;;50.80;31.30;;;;;;;8.78;53.72;99503.59;117069;1186;23639;-67
2022/02/22 05:41:34;;;;;;;49.30;29.20;;;;;;;8.77;53.77;99507.45;117145;1185;24273;-66
2022/02/22 05:44:03;;;;;;;57.30;30.10;;;;;;;8.78;53.81;99509.20;117186;1188;23478;-55
2022/02/22 05:46:32;;;;;;;53.50;28.70;;;;;;;8.80;53.75;99516.33;117125;1187;23556;-66
2022/02/22 05:49:00;;;;;;;49.50;31.00;;;;;;;8.81;53.87;99523.13;117162;1187;24165;-55
2022/02/22 05:51:28;;;;;;;47.80;26.90;;;;;;;8.83;53.82;99525.38;117168;1188;22079;-66
2022/02/22 05:53:57;;;;;;;50.60;29.90;;;;;;;8.83;53.95;99523.63;117167;1187;23475;-55
2022/02/22 05:56:25;;;;;;;46.60;30.10;;;;;;;8.82;53.84;99517.87;117177;1184;23489;-54
2022/02/22 05:58:56;;;;;;;51.00;29.90;;;;;;;8.84;53.79;99515.39;117134;1181;23442;-66
2022/02/22 06:01:24;;;;;;;52.30;27.70;;;;;;;8.84;53.77;99514.69;117136;1188;23576;-66
2022/02/22 06:03:53;;;;;;;44.50;29.80;;;;;;;8.78;53.87;99518.27;117134;1185;23481;-65
2022/02/22 06:06:21;;;;;;;48.40;27.90;;;;;;;8.80;53.77;99520.54;117208;1188;23468;-59
2022/02/22 06:08:50;;;;;;;53.80;29.50;;;;;;;8.81;53.75;99525.08;117174;1184;21858;-55
2022/02/22 06:11:18;;;;;;;57.10;29.80;;;;;;;8.76;53.82;99523.73;117158;1184;21858;-66
2022/02/22 06:13:51;;;;;;;41.30;26.40;;;;;;;8.74;53.75;99528.66;117121;1185;21867;-66
2022/02/22 06:16:20;;;;;;;55.90;29.10;;;;;;;8.74;53.87;99534.11;117192;1186;21860;-66
2022/02/22 06:18:48;;;;;;;41.60;25.90;;;;;;;8.72;53.92;99537.98;117133;1184;21875;-66
2022/02/22 06:21:17;;;;;;;48.30;28.20;;;;;;;8.74;54.00;99538.65;117144;1185;23452;-56
2022/02/22 06:23:45;;;;;;;55.30;28.60;;;;;;;8.76;53.99;99541.23;117168;1184;22946;-66
2022/02/22 06:26:14;;;;;;;46.00;27.80;;;;;;;8.78;53.81;99543.83;117121;1185;22940;-66
2022/02/22 06:28:42;;;;;;;44.00;25.80;;;;;;;8.79;54.01;99546.78;117181;1184;23455;-66
2022/02/22 06:31:10;;;;;;;53.90;28.10;;;;;;;8.82;53.98;99551.98;117079;1188;21854;-66
2022/02/22 06:33:39;;;;;;;48.80;27.30;;;;;;;8.82;53.87;99556.88;117214;1188;23547;-55
2022/02/22 06:36:07;;;;;;;46.60;27.80;;;;;;;8.81;54.04;99558.64;117115;1188;23474;-55
2022/02/22 06:38:36;;;;;;;49.10;28.30;;;;;;;8.82;53.99;99560.38;117257;1188;23467;-63
2022/02/22 06:41:04;;;;;;;69.10;42.10;;;;;;;8.84;53.95;99558.94;117208;1184;23465;-55
2022/02/22 06:43:33;;;;;;;56.90;32.90;;;;;;;8.89;54.06;99561.98;117213;1182;23520;-54
2022/02/22 06:46:03;;;;;;;54.40;33.10;;;;;;;8.95;54.03;99566.42;117112;1187;24206;-54
2022/02/22 06:48:31;;;;;;;53.10;32.40;;;;;;;8.98;54.14;99573.21;117228;1186;21971;-55
2022/02/22 06:51:00;;;;;;;54.40;32.90;;;;;;;8.99;54.04;99566.53;117031;1186;23467;-66
2022/02/22 06:53:31;;;;;;;55.10;33.90;;;;;;;9.02;54.08;99564.56;117128;1185;23525;-66
2022/02/22 06:55:59;;;;;;;54.10;33.70;;;;;;;9.03;54.00;99565.77;117146;1188;22899;-66
2022/02/22 06:58:28;;;;;;;55.30;33.30;;;;;;;9.04;54.06;99561.19;117208;1188;21860;-54
2022/02/22 07:00:58;;;;;;;45.00;29.30;;;;;;;9.05;54.12;99561.19;117201;1185;23459;-65
2022/02/22 07:03:27;;;;;;;46.70;27.70;;;;;;;9.07;54.11;99563.92;117092;1186;21962;-55
2022/02/22 07:05:55;;;;;;;48.80;28.70;;;;;;;9.11;54.14;99567.17;117208;1185;23576;-54
2022/02/22 07:08:24;;;;;;;65.00;33.70;;;;;;;9.14;54.19;99559.77;116935;1186;21886;-66
2022/02/22 07:10:53;;;;;;;62.90;36.30;;;;;;;9.17;54.14;99551.31;117137;1185;24718;-55
2022/02/22 07:13:21;;;;;;;57.60;34.50;;;;;;;9.20;54.18;99550.73;117138;1186;23563;-68
2022/02/22 07:16:13;;;;;;;49.00;27.40;;;;;;;9.25;54.19;99556.77;117088;1188;21858;-69
2022/02/22 07:18:43;;;;;;;52.20;28.60;;;;;;;9.28;54.22;99559.34;117163;1183;21867;-68
2022/02/22 07:21:11;;;;;;;49.20;27.50;;;;;;;9.30;54.21;99565.59;117132;1186;23557;-68
2022/02/22 07:23:39;;;;;;;50.10;26.60;;;;;;;9.32;54.20;99564.66;117102;1187;24141;-68
2022/02/22 07:26:07;;;;;;;57.00;32.10;;;;;;;9.35;54.24;99562.33;117172;1184;23468;-67
2022/02/22 07:28:35;;;;;;;56.30;29.40;;;;;;;9.40;54.36;99564.68;117168;1188;23560;-55
2022/02/22 07:31:06;;;;;;;54.90;28.50;;;;;;;9.44;54.38;99561.27;117181;1178;23522;-55
2022/02/22 07:33:34;;;;;;;48.90;27.90;;;;;;;9.47;54.39;99553.86;117277;1186;21867;-68
2022/02/22 07:36:03;;;;;;;44.10;26.30;;;;;;;9.48;54.38;99556.47;117002;1187;23454;-67
2022/02/22 07:38:31;;;;;;;44.70;26.20;;;;;;;9.50;54.37;99557.83;117156;1188;24238;-66
2022/02/22 07:41:00;;;;;;;43.30;26.50;;;;;;;9.51;54.36;99560.94;117115;1187;24209;-67
2022/02/22 07:43:28;;;;;;;53.60;28.60;;;;;;;9.56;54.47;99564.35;117145;1188;21846;-55
2022/02/22 07:45:56;;;;;;;54.40;29.60;;;;;;;9.61;54.47;99564.42;117155;1186;21861;-55
2022/02/22 07:48:24;;;;;;;50.20;28.50;;;;;;;9.63;54.54;99562.99;117179;1186;21848;-67
2022/02/22 07:50:53;;;;;;;51.10;28.80;;;;;;;9.64;54.53;99566.46;117236;1184;23479;-56
2022/02/22 07:53:21;;;;;;;46.80;25.80;;;;;;;9.69;54.52;99567.41;117174;1188;23157;-67
2022/02/22 07:55:49;;;;;;;48.30;29.10;;;;;;;9.72;54.48;99570.67;117034;1187;23527;-67
2022/02/22 07:58:17;;;;;;;47.60;28.10;;;;;;;9.74;54.59;99572.02;117184;1187;21853;-67
2022/02/22 08:00:47;;;;;;;50.20;27.70;;;;;;;9.75;54.41;99571.31;117179;1185;22945;-56
2022/02/22 08:03:15;;;;;;;62.20;30.80;;;;;;;9.75;54.49;99570.95;117993;1185;23529;-55
2022/02/22 08:05:43;;;;;;;42.80;26.40;;;;;;;9.75;54.50;99564.98;117728;1182;23547;-55
2022/02/22 08:08:12;;;;;;;53.20;31.30;;;;;;;9.77;54.44;99566.17;117210;1188;23471;-67
2022/02/22 08:10:41;;;;;;;54.60;30.40;;;;;;;9.80;54.55;99560.68;117195;1185;21860;-69
2022/02/22 08:13:11;;;;;;;45.00;27.80;;;;;;;9.83;54.54;99566.56;117202;1186;23451;-55
2022/02/22 08:15:39;;;;;;;54.20;30.70;;;;;;;9.87;54.58;99566.32;117198;1187;23582;-56
2022/02/22 08:18:07;;;;;;;46.70;27.80;;;;;;;9.90;54.63;99567.81;117261;1186;23464;-56
2022/02/22 08:20:36;;;;;;;56.90;30.50;;;;;;;9.93;54.60;99567.05;117198;1187;22926;-69
2022/02/22 08:23:04;;;;;;;57.30;30.10;;;;;;;9.96;54.56;99568.39;117158;1186;21848;-70
2022/02/22 08:25:33;;;;;;;49.80;29.60;;;;;;;9.98;54.49;99575.17;117206;1187;23462;-70
2022/02/22 08:28:11;;;;;;;51.60;31.30;;;;;;;10.02;54.70;99574.76;117132;1187;22626;-68
2022/02/22 08:30:40;;;;;;;54.20;29.20;;;;;;;10.07;54.67;99574.98;117159;1186;21865;-56
2022/02/22 08:33:08;;;;;;;51.70;30.70;;;;;;;10.10;54.63;99572.79;117184;1188;21860;-66
2022/02/22 08:35:37;;;;;;;46.70;28.30;;;;;;;10.15;54.82;99573.38;117122;1188;21872;-55
2022/02/22 08:38:06;;;;;;;44.00;27.50;;;;;;;10.19;54.86;99575.75;117022;1187;23207;-66
2022/02/22 08:40:34;;;;;;;47.50;27.00;;;;;;;10.23;54.85;99578.64;117214;1186;22917;-56
2022/02/22 08:43:03;;;;;;;43.90;27.40;;;;;;;10.27;54.72;99579.60;117193;1187;21870;-55
2022/02/22 08:45:32;;;;;;;51.50;30.50;;;;;;;10.29;54.77;99583.23;117159;1185;21892;-56
2022/02/22 08:48:01;;;;;;;49.80;27.70;;;;;;;10.32;54.73;99587.90;117076;1186;22929;-55
2022/02/22 08:50:31;;;;;;;49.70;29.30;;;;;;;10.35;54.66;99594.48;117186;1188;23453;-66
2022/02/22 08:53:01;;;;;;;50.00;27.80;;;;;;;10.38;54.78;99598.98;117198;1186;23530;-66
2022/02/22 08:55:29;;;;;;;43.40;27.00;;;;;;;10.41;54.91;99598.42;117151;1184;23547;-66
2022/02/22 08:58:00;;;;;;;48.40;28.40;;;;;;;10.44;54.85;99599.23;117144;1187;21862;-55
2022/02/22 09:00:28;;;;;;;53.50;29.90;;;;;;;10.45;54.78;99603.91;117183;1187;21863;-55
2022/02/22 09:03:00;;;;;;;44.10;27.60;;;;;;;10.50;54.81;99613.81;117024;1188;24166;-55
2022/02/22 09:05:30;;;;;;;47.90;28.90;;;;;;;10.51;54.76;99619.04;118056;1184;21833;-56
2022/02/22 09:07:59;;;;;;;45.00;26.80;;;;;;;10.53;54.72;99625.85;118089;1187;23555;-55
2022/02/22 09:10:27;;;;;;;45.90;28.80;;;;;;;10.49;54.61;99631.20;117244;1184;23314;-66
2022/02/22 09:12:56;;;;;;;46.00;28.70;;;;;;;10.47;54.62;99626.15;117170;1188;23564;-56
2022/02/22 09:15:25;;;;;;;44.60;27.70;;;;;;;10.51;54.73;99613.23;117151;1188;21991;-56
2022/02/22 09:17:53;;;;;;;46.50;28.40;;;;;;;10.57;54.86;99601.55;117315;1184;21859;-66
2022/02/22 09:20:23;;;;;;;43.70;28.10;;;;;;;10.61;54.99;99596.34;117098;1187;23455;-65
2022/02/22 09:22:51;;;;;;;51.20;31.60;;;;;;;10.69;54.97;99606.48;117249;1188;21868;-66
2022/02/22 09:25:20;;;;;;;48.90;28.20;;;;;;;10.76;54.99;99620.01;117300;1187;21858;-65
2022/02/22 09:27:48;;;;;;;47.30;29.20;;;;;;;10.78;54.78;99626.98;117203;1188;23491;-65
2022/02/22 09:30:19;;;;;;;45.00;27.60;;;;;;;10.72;54.84;99626.78;117228;1182;22165;-55
2022/02/22 09:32:48;;;;;;;44.70;27.40;;;;;;;10.67;54.82;99627.60;117214;1187;22810;-65
2022/02/22 09:35:18;;;;;;;47.50;30.20;;;;;;;10.67;54.78;99629.89;117172;1188;21885;-55
2022/02/22 09:37:46;;;;;;;44.60;28.10;;;;;;;10.66;54.85;99636.58;117221;1182;22313;-55
2022/02/22 09:40:15;;;;;;;44.30;29.20;;;;;;;10.66;54.80;99631.66;117110;1185;23618;-65
2022/02/22 09:42:44;;;;;;;43.70;28.00;;;;;;;10.71;54.87;99633.11;117115;1187;21860;-66
2022/02/22 09:45:14;;;;;;;44.80;26.90;;;;;;;10.75;54.89;99636.88;117123;1188;21854;-65
2022/02/22 09:47:43;;;;;;;49.20;28.00;;;;;;;10.76;54.67;99643.53;117184;1188;23491;-66
2022/02/22 09:50:14;;;;;;;48.90;28.60;;;;;;;10.71;54.70;99645.91;117198;1189;21954;-55
2022/02/22 09:52:43;;;;;;;41.70;27.60;;;;;;;10.68;54.59;99644.23;117174;1187;21855;-67
2022/02/22 09:55:11;;;;;;;49.30;28.50;;;;;;;10.66;54.59;99647.46;117179;1189;21865;-54
2022/02/22 09:57:40;;;;;;;46.90;30.40;;;;;;;10.65;54.66;99644.66;117125;1185;23469;-55
2022/02/22 10:00:22;;;;;;;41.60;29.10;;;;;;;10.65;54.70;99643.42;117194;1189;23466;-67
2022/02/22 10:02:51;;;;;;;43.80;29.20;;;;;;;10.67;54.76;99642.69;117011;1186;21860;-55
2022/02/22 10:05:22;;;;;;;47.60;28.50;;;;;;;10.69;54.84;99643.69;117344;1186;23452;-67
2022/02/22 10:07:54;;;;;;;50.10;29.30;;;;;;;10.76;54.77;99639.51;117139;1186;21852;-68
2022/02/22 10:10:33;;;;;;;41.60;27.90;;;;;;;10.81;54.68;99641.30;117104;1188;23681;-68
2022/02/22 10:13:02;;;;;;;44.20;27.20;;;;;;;10.84;54.71;99641.21;117112;1186;21968;-68
2022/02/22 10:15:38;;;;;;;47.90;29.70;;;;;;;10.87;54.59;99640.97;117212;1183;21864;-68
2022/02/22 10:18:07;;;;;;;47.20;31.60;;;;;;;10.89;54.64;99644.44;117198;1186;21859;-67
2022/02/22 10:20:36;;;;;;;48.50;32.30;;;;;;;10.90;54.72;99644.26;117146;1186;21848;-55
2022/02/22 10:23:06;;;;;;;42.40;28.80;;;;;;;10.90;54.72;99646.00;117204;1187;22929;-55
2022/02/22 10:25:36;;;;;;;46.00;28.90;;;;;;;10.88;54.74;99643.76;117196;1188;23465;-68
2022/02/22 10:28:05;;;;;;;44.20;28.30;;;;;;;10.92;54.82;99645.05;117152;1188;21896;-55
2022/02/22 10:30:40;;;;;;;43.90;28.10;;;;;;;10.98;54.88;99642.64;117121;1188;21847;-68
2022/02/22 10:33:16;;;;;;;45.50;27.90;;;;;;;11.00;54.77;99646.80;117206;1187;21847;-68
2022/02/22 10:35:54;;;;;;;44.50;29.20;;;;;;;10.97;54.55;99649.66;117201;1186;23481;-68
2022/02/22 10:38:27;;;;;;;43.10;29.50;;;;;;;10.94;54.74;99652.20;117214;1188;22697;-55
2022/02/22 10:41:03;;;;;;;43.50;29.50;;;;;;;10.92;54.75;99654.20;117171;1188;21873;-55
2022/02/22 10:43:37;;;;;;;39.80;28.20;;;;;;;10.84;54.57;99657.88;117071;1188;24167;-55
2022/02/22 10:46:10;;;;;;;45.30;28.80;;;;;;;10.77;54.53;99658.60;117084;1187;23547;-54
2022/02/22 10:48:43;;;;;;;41.60;27.90;;;;;;;10.70;54.56;99658.58;117162;1185;21871;-55
2022/02/22 10:51:13;;;;;;;36.90;26.70;;;;;;;10.66;54.53;99656.57;117183;1188;22084;-68
2022/02/22 10:53:48;;;;;;;46.70;28.90;;;;;;;10.68;54.58;99658.45;117173;1188;22920;-68
2022/02/22 10:56:17;;;;;;;41.30;28.70;;;;;;;10.66;54.70;99652.89;117076;1187;21851;-55
2022/02/22 10:58:48;;;;;;;40.70;28.40;;;;;;;10.66;54.84;99655.52;117156;1188;22651;-67
2022/02/22 11:01:19;;;;;;;42.20;27.10;;;;;;;10.67;54.68;99659.70;117301;1188;23458;-55
2022/02/22 11:03:47;;;;;;;38.50;27.30;;;;;;;10.71;54.79;99661.71;116973;1187;23655;-68
2022/02/22 11:06:16;;;;;;;41.10;28.90;;;;;;;10.76;54.73;99664.42;117108;1187;23473;-55
2022/02/22 11:08:46;;;;;;;39.50;27.00;;;;;;;10.77;54.84;99671.23;117198;1185;22950;-55
2022/02/22 11:12:29;;;;;;;37.70;26.00;;;;;;;10.80;54.77;99672.05;117121;1188;21842;-54
2022/02/22 11:15:09;;;;;;;41.70;27.60;;;;;;;10.82;54.66;99673.19;117235;1187;21856;-68
2022/02/22 11:17:46;;;;;;;38.30;27.20;;;;;;;10.83;54.74;99676.15;117197;1184;21859;-67
2022/02/22 11:20:31;;;;;;;38.70;26.80;;;;;;;10.86;54.89;99678.20;117061;1188;21862;-55
2022/02/22 11:23:01;;;;;;;36.30;24.20;;;;;;;10.88;54.76;99674.99;117057;1187;22912;-67
2022/02/22 11:25:32;;;;;;;35.00;25.50;;;;;;;10.92;54.87;99667.54;117103;1188;23588;-55